Time;durP1;ratioP1;P1;durP2;ratioP2;P2;SDS_P1;SDS_P2;PMS_P1;PMS_P2;Temp;Humidity;BMP_temperature;BMP_pressure;BME280_temperature;BME280_humidity;BME280_pressure;Samples;Min_cycle;Max_cycle;Signal;HPM_P1;HPM_P2
2023/08/06 00:01:58;;;;;;;0.10;0.10;;;;;;;;;;6154329;23;20025;-92
2023/08/06 00:04:24;;;;;;;0.25;0.10;;;;;;;;;;6130221;23;20073;-93
2023/08/06 00:06:50;;;;;;;0.10;0.10;;;;;;;;;;6130026;23;20114;-92
2023/08/06 00:09:16;;;;;;;0.10;0.10;;;;;;;;;;6105495;23;20013;-93
2023/08/06 00:11:43;;;;;;;0.10;0.10;;;;;;;;;;6154632;23;20017;-94
2023/08/06 00:14:10;;;;;;;0.10;0.10;;;;;;;;;;6105597;23;20035;-94
2023/08/06 00:16:36;;;;;;;0.10;0.10;;;;;;;;;;6129987;23;20013;-94
2023/08/06 00:19:02;;;;;;;0.20;0.20;;;;;;;;;;6154798;23;20063;-92
2023/08/06 00:21:28;;;;;;;0.20;0.20;;;;;;;;;;6130149;23;20028;-94
2023/08/06 00:23:54;;;;;;;0.13;0.13;;;;;;;;;;6130053;23;20020;-93
2023/08/06 00:26:20;;;;;;;0.10;0.10;;;;;;;;;;6154025;23;20013;-94
2023/08/06 00:28:46;;;;;;;0.10;0.10;;;;;;;;;;6105642;23;20156;-94
2023/08/06 00:31:12;;;;;;;0.10;0.10;;;;;;;;;;6129363;23;20096;-93
2023/08/06 00:33:38;;;;;;;0.10;0.10;;;;;;;;;;6104961;23;20400;-94
2023/08/06 00:36:04;;;;;;;0.10;0.10;;;;;;;;;;6104909;23;20017;-94
2023/08/06 00:38:30;;;;;;;0.10;0.10;;;;;;;;;;6129820;23;20471;-93
2023/08/06 00:40:56;;;;;;;0.17;0.17;;;;;;;;;;6154288;23;20056;-93
2023/08/06 00:43:22;;;;;;;0.10;0.10;;;;;;;;;;6105133;23;20269;-94
2023/08/06 00:45:48;;;;;;;0.10;0.10;;;;;;;;;;6105508;23;20136;-93
2023/08/06 00:48:14;;;;;;;0.10;0.10;;;;;;;;;;6104853;23;20458;-91
2023/08/06 00:50:40;;;;;;;0.10;0.10;;;;;;;;;;6129166;23;20017;-92
2023/08/06 00:53:06;;;;;;;0.10;0.10;;;;;;;;;;6104723;23;20013;-92
2023/08/06 00:55:32;;;;;;;0.10;0.10;;;;;;;;;;6104137;23;20490;-92
2023/08/06 00:57:58;;;;;;;0.10;0.10;;;;;;;;;;6129071;23;20024;-91
2023/08/06 01:00:25;;;;;;;0.10;0.10;;;;;;;;;;6129069;23;20017;-91
2023/08/06 01:02:51;;;;;;;0.10;0.10;;;;;;;;;;6128774;23;20014;-91
2023/08/06 01:05:17;;;;;;;0.10;0.10;;;;;;;;;;6127704;23;20092;-91
2023/08/06 01:07:50;;;;;;;0.40;0.40;;;;;;;;;;6129031;23;20013;-91
2023/08/06 01:10:31;;;;;;;0.15;0.15;;;;;;;;;;6128532;23;20100;-91
2023/08/06 01:13:12;;;;;;;0.17;0.17;;;;;;;;;;6153201;23;20055;-91
2023/08/06 01:15:40;;;;;;;0.10;0.10;;;;;;;;;;6129027;23;20100;-91
2023/08/06 01:18:06;;;;;;;0.10;0.10;;;;;;;;;;6104035;23;20049;-92
2023/08/06 01:20:32;;;;;;;0.10;0.10;;;;;;;;;;6104779;23;20013;-92
2023/08/06 01:22:58;;;;;;;0.10;0.10;;;;;;;;;;6129487;23;20021;-95
2023/08/06 01:25:30;;;;;;;0.10;0.10;;;;;;;;;;6104554;23;20009;-92
2023/08/06 01:27:56;;;;;;;0.20;0.20;;;;;;;;;;6105455;23;20022;-95
2023/08/06 01:30:41;;;;;;;0.10;0.10;;;;;;;;;;6104938;23;20018;-94
2023/08/06 01:33:07;;;;;;;0.20;0.20;;;;;;;;;;6153786;23;20490;-95
2023/08/06 01:35:33;;;;;;;0.10;0.10;;;;;;;;;;6129407;23;20072;-94
2023/08/06 01:38:00;;;;;;;0.10;0.10;;;;;;;;;;6129064;23;20049;-96
2023/08/06 01:40:28;;;;;;;0.10;0.10;;;;;;;;;;6129713;23;20013;-94
2023/08/06 01:42:54;;;;;;;0.10;0.10;;;;;;;;;;6105150;23;20013;-94
2023/08/06 01:45:20;;;;;;;0.10;0.10;;;;;;;;;;6129217;23;20016;-94
2023/08/06 01:47:46;;;;;;;0.17;0.17;;;;;;;;;;6105047;23;20388;-94
2023/08/06 01:50:12;;;;;;;0.10;0.10;;;;;;;;;;6128715;23;20018;-95
2023/08/06 01:52:38;;;;;;;0.20;0.20;;;;;;;;;;6104892;23;20018;-93
2023/08/06 01:55:04;;;;;;;0.10;0.10;;;;;;;;;;6128802;23;20013;-93
2023/08/06 01:57:30;;;;;;;0.13;0.13;;;;;;;;;;6129442;23;20017;-94
2023/08/06 01:59:56;;;;;;;0.32;0.20;;;;;;;;;;6153783;23;20036;-94
2023/08/06 02:02:22;;;;;;;0.10;0.10;;;;;;;;;;6128796;23;20356;-93
2023/08/06 02:04:48;;;;;;;0.10;0.10;;;;;;;;;;6153338;23;20097;-93
2023/08/06 02:07:14;;;;;;;0.10;0.10;;;;;;;;;;6129277;23;20200;-93
2023/08/06 02:09:40;;;;;;;0.20;0.20;;;;;;;;;;6104364;23;20013;-93
2023/08/06 02:12:07;;;;;;;0.10;0.10;;;;;;;;;;6128946;23;20036;-94
2023/08/06 02:14:33;;;;;;;0.10;0.10;;;;;;;;;;6153957;23;20123;-93
2023/08/06 02:16:59;;;;;;;0.10;0.10;;;;;;;;;;6128887;23;20092;-93
2023/08/06 02:19:25;;;;;;;0.10;0.10;;;;;;;;;;6103951;23;20052;-93
2023/08/06 02:21:51;;;;;;;0.10;0.10;;;;;;;;;;6104370;23;20014;-92
2023/08/06 02:24:17;;;;;;;0.30;0.30;;;;;;;;;;6130490;23;20009;-92
2023/08/06 02:26:43;;;;;;;0.10;0.10;;;;;;;;;;6105753;23;20499;-93
2023/08/06 02:29:09;;;;;;;0.10;0.10;;;;;;;;;;6106409;23;20017;-92
2023/08/06 02:31:35;;;;;;;0.10;0.10;;;;;;;;;;6105798;23;20017;-91
2023/08/06 02:34:01;;;;;;;0.20;0.20;;;;;;;;;;6155359;23;20017;-92
2023/08/06 02:36:29;;;;;;;0.10;0.10;;;;;;;;;;6130179;23;20017;-92
2023/08/06 02:38:55;;;;;;;0.10;0.10;;;;;;;;;;6131499;23;20404;-93
2023/08/06 02:41:21;;;;;;;0.10;0.10;;;;;;;;;;6132709;23;20013;-94
2023/08/06 02:43:47;;;;;;;0.20;0.20;;;;;;;;;;6155462;23;20041;-95
2023/08/06 02:46:13;;;;;;;0.10;0.10;;;;;;;;;;6106219;23;20013;-96
2023/08/06 02:48:39;;;;;;;0.10;0.10;;;;;;;;;;6106204;23;20470;-95
2023/08/06 02:51:05;;;;;;;0.10;0.10;;;;;;;;;;6106269;23;20024;-94
2023/08/06 02:53:31;;;;;;;0.10;0.10;;;;;;;;;;6106555;23;20052;-92
2023/08/06 02:55:58;;;;;;;0.10;0.10;;;;;;;;;;6106366;23;20426;-95
2023/08/06 02:58:24;;;;;;;0.10;0.10;;;;;;;;;;6103865;23;20392;-92
2023/08/06 03:01:02;;;;;;;0.10;0.10;;;;;;;;;;6129465;23;20056;-92
2023/08/06 03:03:31;;;;;;;0.10;0.10;;;;;;;;;;6130732;23;20021;-96
2023/08/06 03:05:58;;;;;;;0.30;0.30;;;;;;;;;;6131584;23;20121;-94
2023/08/06 03:08:24;;;;;;;0.20;0.20;;;;;;;;;;6106153;23;20013;-93
2023/08/06 03:10:50;;;;;;;0.10;0.10;;;;;;;;;;6130124;23;20084;-95
2023/08/06 03:13:19;;;;;;;0.10;0.10;;;;;;;;;;6104968;23;20037;-95
2023/08/06 03:15:55;;;;;;;0.30;0.30;;;;;;;;;;6106157;23;20018;-94
2023/08/06 03:18:21;;;;;;;0.10;0.10;;;;;;;;;;6105579;23;20340;-94
2023/08/06 03:20:48;;;;;;;0.40;0.20;;;;;;;;;;6105802;23;20017;-96
2023/08/06 03:23:14;;;;;;;0.10;0.10;;;;;;;;;;6130284;23;20018;-94
2023/08/06 03:25:41;;;;;;;0.10;0.10;;;;;;;;;;6129897;23;20014;-95
2023/08/06 03:28:07;;;;;;;0.20;0.20;;;;;;;;;;6105909;23;20068;-95
2023/08/06 03:30:33;;;;;;;0.10;0.10;;;;;;;;;;6105510;23;20033;-96
2023/08/06 03:32:59;;;;;;;0.10;0.10;;;;;;;;;;6105268;23;20025;-93
2023/08/06 03:35:25;;;;;;;0.10;0.10;;;;;;;;;;6130015;23;20018;-94
2023/08/06 03:37:51;;;;;;;0.20;0.20;;;;;;;;;;6105576;23;20017;-94
2023/08/06 03:40:17;;;;;;;0.10;0.10;;;;;;;;;;6105177;23;20024;-93
2023/08/06 03:42:43;;;;;;;0.30;0.30;;;;;;;;;;6105502;23;20072;-96
2023/08/06 03:45:09;;;;;;;0.10;0.10;;;;;;;;;;6130123;23;20412;-95
2023/08/06 03:47:35;;;;;;;0.10;0.10;;;;;;;;;;6130158;23;20013;-94
2023/08/06 03:50:01;;;;;;;0.10;0.10;;;;;;;;;;6129877;23;20010;-95
2023/08/06 03:52:27;;;;;;;0.10;0.10;;;;;;;;;;6129856;23;20009;-93
2023/08/06 03:54:53;;;;;;;0.10;0.10;;;;;;;;;;6105758;23;20080;-92
2023/08/06 03:57:19;;;;;;;0.10;0.10;;;;;;;;;;6154348;23;20014;-93
2023/08/06 03:59:45;;;;;;;0.10;0.10;;;;;;;;;;6105436;23;20013;-95
2023/08/06 04:02:11;;;;;;;0.47;0.30;;;;;;;;;;6105341;23;20024;-95
2023/08/06 04:04:37;;;;;;;0.10;0.10;;;;;;;;;;6105458;23;20013;-94
2023/08/06 04:07:03;;;;;;;0.20;0.20;;;;;;;;;;6154391;23;20005;-96
2023/08/06 04:09:29;;;;;;;0.10;0.10;;;;;;;;;;6104771;23;20311;-90
2023/08/06 04:11:56;;;;;;;0.10;0.10;;;;;;;;;;6128907;23;20013;-90
2023/08/06 04:14:22;;;;;;;0.10;0.10;;;;;;;;;;6153480;23;20124;-90
2023/08/06 04:16:48;;;;;;;0.10;0.10;;;;;;;;;;6128703;23;20052;-90
2023/08/06 04:19:14;;;;;;;0.10;0.10;;;;;;;;;;6152968;23;20065;-90
2023/08/06 04:21:40;;;;;;;0.10;0.10;;;;;;;;;;6153786;23;20013;-90
2023/08/06 04:24:06;;;;;;;0.10;0.10;;;;;;;;;;6129094;23;20017;-91
2023/08/06 04:26:32;;;;;;;0.10;0.10;;;;;;;;;;6153442;23;20017;-92
2023/08/06 04:28:58;;;;;;;0.10;0.10;;;;;;;;;;6153876;23;20028;-93
2023/08/06 04:31:24;;;;;;;0.10;0.10;;;;;;;;;;6129325;23;20010;-92
2023/08/06 04:33:50;;;;;;;0.10;0.10;;;;;;;;;;6155203;23;20021;-91
2023/08/06 04:36:16;;;;;;;0.10;0.10;;;;;;;;;;6128512;23;20021;-91
2023/08/06 04:38:44;;;;;;;0.10;0.10;;;;;;;;;;6128993;23;20017;-91
2023/08/06 04:41:11;;;;;;;0.10;0.10;;;;;;;;;;6129184;23;20013;-90
2023/08/06 04:43:37;;;;;;;0.10;0.10;;;;;;;;;;6128866;23;20336;-92
2023/08/06 04:46:03;;;;;;;0.10;0.10;;;;;;;;;;6128694;23;20093;-92
2023/08/06 04:48:29;;;;;;;0.10;0.10;;;;;;;;;;6152249;23;20023;-91
2023/08/06 04:50:55;;;;;;;0.10;0.10;;;;;;;;;;6128837;23;20096;-92
2023/08/06 04:53:21;;;;;;;0.20;0.20;;;;;;;;;;6104138;23;20024;-90
2023/08/06 04:55:47;;;;;;;0.20;0.20;;;;;;;;;;6153337;23;20018;-91
2023/08/06 04:58:13;;;;;;;0.10;0.10;;;;;;;;;;6155084;23;20056;-92
2023/08/06 05:00:39;;;;;;;0.10;0.10;;;;;;;;;;6104593;23;20081;-92
2023/08/06 05:03:06;;;;;;;0.10;0.10;;;;;;;;;;6129129;23;20010;-92
2023/08/06 05:05:32;;;;;;;0.10;0.10;;;;;;;;;;6104314;23;20164;-92
2023/08/06 05:07:57;;;;;;;0.10;0.10;;;;;;;;;;6128764;23;20464;-91
2023/08/06 05:10:27;;;;;;;0.10;0.10;;;;;;;;;;6128928;23;20009;-91
2023/08/06 05:12:53;;;;;;;0.10;0.10;;;;;;;;;;6128898;23;20048;-91
2023/08/06 05:15:19;;;;;;;0.10;0.10;;;;;;;;;;6129138;23;20462;-91
2023/08/06 05:17:45;;;;;;;0.10;0.10;;;;;;;;;;6153162;23;20013;-91
2023/08/06 05:20:11;;;;;;;0.10;0.10;;;;;;;;;;6128691;23;20025;-92
2023/08/06 05:22:37;;;;;;;0.10;0.10;;;;;;;;;;6128621;23;20044;-93
2023/08/06 05:25:03;;;;;;;0.10;0.10;;;;;;;;;;6128978;23;20017;-92
2023/08/06 05:27:29;;;;;;;0.10;0.10;;;;;;;;;;6104136;23;20432;-92
2023/08/06 05:29:58;;;;;;;0.10;0.10;;;;;;;;;;6128301;23;20018;-89
2023/08/06 05:32:24;;;;;;;0.10;0.10;;;;;;;;;;6129324;23;20297;-90
2023/08/06 05:34:50;;;;;;;0.10;0.10;;;;;;;;;;6127717;23;20013;-88
2023/08/06 05:37:16;;;;;;;0.13;0.13;;;;;;;;;;6127781;23;20092;-89
2023/08/06 05:39:42;;;;;;;0.10;0.10;;;;;;;;;;6152470;23;20014;-90
2023/08/06 05:42:07;;;;;;;0.20;0.20;;;;;;;;;;6103961;23;20021;-89
2023/08/06 05:44:34;;;;;;;0.10;0.10;;;;;;;;;;6127966;23;20013;-89
2023/08/06 05:46:59;;;;;;;0.20;0.20;;;;;;;;;;6152643;23;20053;-89
2023/08/06 05:49:25;;;;;;;0.10;0.10;;;;;;;;;;6152661;23;20458;-89
2023/08/06 05:51:53;;;;;;;0.25;0.20;;;;;;;;;;6103394;23;20089;-89
2023/08/06 05:54:19;;;;;;;0.10;0.10;;;;;;;;;;6127893;23;20056;-89
2023/08/06 05:56:45;;;;;;;0.17;0.17;;;;;;;;;;6153211;23;20021;-91
2023/08/06 05:59:11;;;;;;;0.10;0.10;;;;;;;;;;6130342;23;20013;-89
2023/08/06 06:01:37;;;;;;;0.10;0.10;;;;;;;;;;6129792;23;20016;-88
2023/08/06 06:04:03;;;;;;;0.10;0.10;;;;;;;;;;6154687;23;20689;-88
2023/08/06 06:06:29;;;;;;;0.10;0.10;;;;;;;;;;6129419;23;20091;-90
2023/08/06 06:08:55;;;;;;;0.10;0.10;;;;;;;;;;6155954;23;20017;-90
2023/08/06 06:11:22;;;;;;;0.10;0.10;;;;;;;;;;6129835;23;20092;-89
2023/08/06 06:13:48;;;;;;;0.10;0.10;;;;;;;;;;6154640;23;20053;-89
2023/08/06 06:16:14;;;;;;;0.13;0.13;;;;;;;;;;6129724;23;20101;-89
2023/08/06 06:18:40;;;;;;;0.10;0.10;;;;;;;;;;6154262;23;20049;-89
2023/08/06 06:21:06;;;;;;;0.20;0.20;;;;;;;;;;6129552;23;20013;-89
2023/08/06 06:23:32;;;;;;;1.88;0.55;;;;;;;;;;6154220;23;20169;-89
2023/08/06 06:25:58;;;;;;;0.10;0.10;;;;;;;;;;6153801;23;20036;-89
2023/08/06 06:28:24;;;;;;;0.10;0.10;;;;;;;;;;6153998;23;20018;-89
2023/08/06 06:30:50;;;;;;;0.10;0.10;;;;;;;;;;6129563;23;20048;-89
2023/08/06 06:33:16;;;;;;;0.10;0.10;;;;;;;;;;6129990;23;20470;-90
2023/08/06 06:35:42;;;;;;;0.10;0.10;;;;;;;;;;6154064;23;20024;-89
2023/08/06 06:38:08;;;;;;;0.10;0.10;;;;;;;;;;6155516;23;20028;-89
2023/08/06 06:40:34;;;;;;;0.20;0.20;;;;;;;;;;6154399;23;20380;-90
2023/08/06 06:43:00;;;;;;;0.40;0.40;;;;;;;;;;6129579;23;20040;-89
2023/08/06 06:45:26;;;;;;;0.10;0.10;;;;;;;;;;6129568;23;20053;-88
2023/08/06 06:47:52;;;;;;;0.10;0.10;;;;;;;;;;6129474;23;20029;-88
2023/08/06 06:50:18;;;;;;;0.10;0.10;;;;;;;;;;6129456;23;20359;-88
2023/08/06 06:52:44;;;;;;;0.20;0.20;;;;;;;;;;6155927;23;20041;-88
2023/08/06 06:55:10;;;;;;;0.10;0.10;;;;;;;;;;6153997;23;20134;-87
2023/08/06 06:57:36;;;;;;;0.10;0.10;;;;;;;;;;6153902;23;20025;-88
2023/08/06 07:00:02;;;;;;;0.10;0.10;;;;;;;;;;6129132;23;20013;-88
2023/08/06 07:02:28;;;;;;;0.10;0.10;;;;;;;;;;6127586;23;20474;-92
2023/08/06 07:04:54;;;;;;;0.10;0.10;;;;;;;;;;6129540;23;20060;-89
2023/08/06 07:07:19;;;;;;;0.10;0.10;;;;;;;;;;6129760;23;20017;-91
2023/08/06 07:09:45;;;;;;;0.20;0.20;;;;;;;;;;6153830;23;20436;-91
2023/08/06 07:12:11;;;;;;;0.10;0.10;;;;;;;;;;6153914;23;20045;-94
2023/08/06 07:14:38;;;;;;;0.10;0.10;;;;;;;;;;6154613;23;20049;-95
2023/08/06 07:17:04;;;;;;;0.10;0.10;;;;;;;;;;6129999;23;20462;-89
2023/08/06 07:19:30;;;;;;;0.10;0.10;;;;;;;;;;6129169;23;20381;-90
2023/08/06 07:21:56;;;;;;;0.10;0.10;;;;;;;;;;6104720;23;20092;-89
2023/08/06 07:24:22;;;;;;;0.10;0.10;;;;;;;;;;6104806;23;20060;-90
2023/08/06 07:26:48;;;;;;;0.10;0.10;;;;;;;;;;6128971;23;20020;-90
2023/08/06 07:29:20;;;;;;;0.20;0.20;;;;;;;;;;6105043;23;20345;-89
2023/08/06 07:31:46;;;;;;;0.22;0.20;;;;;;;;;;6153684;23;20466;-87
2023/08/06 07:34:12;;;;;;;0.10;0.10;;;;;;;;;;6153534;23;20018;-89
2023/08/06 07:36:38;;;;;;;0.10;0.10;;;;;;;;;;6129386;23;20447;-89
2023/08/06 07:39:06;;;;;;;0.10;0.10;;;;;;;;;;6129408;23;20013;-90
2023/08/06 07:41:32;;;;;;;0.10;0.10;;;;;;;;;;6129189;23;20014;-90
2023/08/06 07:43:58;;;;;;;0.10;0.10;;;;;;;;;;6104666;23;20026;-89
2023/08/06 07:46:24;;;;;;;0.10;0.10;;;;;;;;;;6128994;23;20009;-90
2023/08/06 07:48:50;;;;;;;0.10;0.10;;;;;;;;;;6104405;23;20017;-90
2023/08/06 07:51:16;;;;;;;0.20;0.20;;;;;;;;;;6128953;23;20017;-90
2023/08/06 07:53:42;;;;;;;0.10;0.10;;;;;;;;;;6128805;23;20528;-89
2023/08/06 07:56:08;;;;;;;0.10;0.10;;;;;;;;;;6128570;23;20018;-90
2023/08/06 07:58:34;;;;;;;0.10;0.10;;;;;;;;;;6104559;23;20014;-90
2023/08/06 08:01:00;;;;;;;0.10;0.10;;;;;;;;;;6153414;23;20104;-90
2023/08/06 08:03:26;;;;;;;0.10;0.10;;;;;;;;;;6153524;23;20088;-90
2023/08/06 08:05:56;;;;;;;0.10;0.10;;;;;;;;;;6156754;23;20110;-90
2023/08/06 08:08:22;;;;;;;0.10;0.10;;;;;;;;;;6129347;23;20009;-90
2023/08/06 08:10:48;;;;;;;0.10;0.10;;;;;;;;;;6153765;23;20061;-91
2023/08/06 08:13:14;;;;;;;0.10;0.10;;;;;;;;;;6128712;23;20021;-91
2023/08/06 08:15:40;;;;;;;0.10;0.10;;;;;;;;;;6153006;23;20445;-91
2023/08/06 08:18:05;;;;;;;0.10;0.10;;;;;;;;;;6128489;23;20010;-91
2023/08/06 08:20:32;;;;;;;0.20;0.20;;;;;;;;;;6127986;23;20064;-90
2023/08/06 08:23:02;;;;;;;0.10;0.10;;;;;;;;;;6128874;23;20400;-91
2023/08/06 08:25:28;;;;;;;0.20;0.20;;;;;;;;;;6128665;23;20448;-91
2023/08/06 08:27:54;;;;;;;0.15;0.15;;;;;;;;;;6128789;23;20018;-91
2023/08/06 08:30:20;;;;;;;0.10;0.10;;;;;;;;;;6128020;23;20048;-95
2023/08/06 08:32:46;;;;;;;0.20;0.20;;;;;;;;;;6108509;23;20035;-95
2023/08/06 08:35:12;;;;;;;0.10;0.10;;;;;;;;;;6104679;23;20020;-92
2023/08/06 08:37:41;;;;;;;0.20;0.20;;;;;;;;;;6129859;23;20013;-95
2023/08/06 08:40:08;;;;;;;0.10;0.10;;;;;;;;;;6081695;23;20039;-96
2023/08/06 08:42:34;;;;;;;0.10;0.10;;;;;;;;;;6129466;23;20312;-93
2023/08/06 08:45:00;;;;;;;0.20;0.20;;;;;;;;;;6104642;23;20014;-92
2023/08/06 08:47:26;;;;;;;0.10;0.10;;;;;;;;;;6130479;23;20024;-95
2023/08/06 08:49:53;;;;;;;0.20;0.20;;;;;;;;;;6155017;23;20459;-92
2023/08/06 08:52:19;;;;;;;0.20;0.20;;;;;;;;;;6130327;23;20020;-92
2023/08/06 08:54:45;;;;;;;0.20;0.20;;;;;;;;;;6104641;23;20019;-93
2023/08/06 08:57:11;;;;;;;0.20;0.20;;;;;;;;;;6129080;23;20092;-91
2023/08/06 08:59:37;;;;;;;0.20;0.20;;;;;;;;;;6154857;23;20072;-93
2023/08/06 09:02:03;;;;;;;0.20;0.20;;;;;;;;;;6104263;23;20088;-89
2023/08/06 09:04:32;;;;;;;0.20;0.20;;;;;;;;;;6128885;23;20045;-95
2023/08/06 09:06:58;;;;;;;0.20;0.20;;;;;;;;;;6108885;23;20017;-93
2023/08/06 09:09:29;;;;;;;0.20;0.20;;;;;;;;;;6105548;23;20100;-94
2023/08/06 09:11:56;;;;;;;0.20;0.20;;;;;;;;;;6127950;23;20013;-94
2023/08/06 09:14:21;;;;;;;0.20;0.20;;;;;;;;;;6106463;23;20013;-93
2023/08/06 09:16:47;;;;;;;0.20;0.20;;;;;;;;;;6128568;23;20325;-92
2023/08/06 09:19:17;;;;;;;0.10;0.10;;;;;;;;;;6104636;23;20071;-94
2023/08/06 09:21:43;;;;;;;0.20;0.20;;;;;;;;;;6105375;23;20145;-95
2023/08/06 09:24:10;;;;;;;0.20;0.20;;;;;;;;;;6104839;23;20013;-94
2023/08/06 09:26:45;;;;;;;0.17;0.17;;;;;;;;;;6137673;23;20013;-94
2023/08/06 09:29:11;;;;;;;0.10;0.10;;;;;;;;;;6104725;23;20064;-93
2023/08/06 09:31:52;;;;;;;0.20;0.20;;;;;;;;;;6104415;23;20013;-93
2023/08/06 09:34:18;;;;;;;0.20;0.20;;;;;;;;;;6131157;23;20021;-96
2023/08/06 09:36:49;;;;;;;0.10;0.10;;;;;;;;;;6154733;23;20013;-96
2023/08/06 09:39:15;;;;;;;0.10;0.10;;;;;;;;;;6129998;23;20042;-95
2023/08/06 09:41:42;;;;;;;0.20;0.20;;;;;;;;;;6105744;23;20017;-95
2023/08/06 09:44:26;;;;;;;0.20;0.20;;;;;;;;;;6156499;23;20045;-95
2023/08/06 09:46:54;;;;;;;0.20;0.20;;;;;;;;;;6107376;23;20014;-95
2023/08/06 09:49:20;;;;;;;0.20;0.20;;;;;;;;;;6104304;23;20010;-92
2023/08/06 09:51:50;;;;;;;0.20;0.20;;;;;;;;;;6128548;23;20036;-92
2023/08/06 09:54:20;;;;;;;0.30;0.30;;;;;;;;;;6129658;23;20398;-93
2023/08/06 09:56:46;;;;;;;0.17;0.17;;;;;;;;;;6128926;23;20376;-91
2023/08/06 09:59:12;;;;;;;0.20;0.20;;;;;;;;;;6128765;23;20017;-94
2023/08/06 10:01:38;;;;;;;0.20;0.20;;;;;;;;;;6103762;23;20097;-90
2023/08/06 10:04:05;;;;;;;0.20;0.20;;;;;;;;;;6152769;23;20372;-90
2023/08/06 10:06:34;;;;;;;0.20;0.20;;;;;;;;;;6128359;23;20388;-92
2023/08/06 10:09:00;;;;;;;0.20;0.20;;;;;;;;;;6131122;23;20014;-94
2023/08/06 10:11:26;;;;;;;0.30;0.30;;;;;;;;;;6128853;23;20014;-92
2023/08/06 10:13:54;;;;;;;0.20;0.20;;;;;;;;;;6128370;23;20072;-92
2023/08/06 10:16:24;;;;;;;0.20;0.20;;;;;;;;;;6115169;23;20068;-93
2023/08/06 10:18:50;;;;;;;0.20;0.20;;;;;;;;;;6145979;23;20057;-93
2023/08/06 10:21:21;;;;;;;0.20;0.20;;;;;;;;;;6159427;23;20009;-96
2023/08/06 10:23:54;;;;;;;0.30;0.30;;;;;;;;;;6103492;23;20013;-90
2023/08/06 10:26:20;;;;;;;0.20;0.20;;;;;;;;;;6151541;23;20014;-91
2023/08/06 10:28:46;;;;;;;0.30;0.30;;;;;;;;;;6154642;23;20068;-96
2023/08/06 10:31:12;;;;;;;0.20;0.20;;;;;;;;;;6128632;23;20021;-94
2023/08/06 10:33:43;;;;;;;0.20;0.20;;;;;;;;;;6153146;23;20027;-93
2023/08/06 10:36:09;;;;;;;0.20;0.20;;;;;;;;;;6104232;23;20321;-93
2023/08/06 10:38:37;;;;;;;0.20;0.20;;;;;;;;;;6153356;23;20018;-93
2023/08/06 10:41:05;;;;;;;0.20;0.20;;;;;;;;;;6103575;23;20041;-92
2023/08/06 10:43:38;;;;;;;0.20;0.20;;;;;;;;;;6152897;23;20064;-93
2023/08/06 10:46:05;;;;;;;0.20;0.20;;;;;;;;;;6129977;23;20372;-91
2023/08/06 10:48:33;;;;;;;0.20;0.20;;;;;;;;;;6129572;23;20454;-91
2023/08/06 10:51:00;;;;;;;0.20;0.20;;;;;;;;;;6155772;23;20043;-88
2023/08/06 10:53:26;;;;;;;0.20;0.20;;;;;;;;;;6129520;23;20017;-89
2023/08/06 10:55:52;;;;;;;0.10;0.10;;;;;;;;;;6153795;23;20040;-89
2023/08/06 10:58:18;;;;;;;0.20;0.20;;;;;;;;;;6154951;23;20025;-88
2023/08/06 11:00:44;;;;;;;0.20;0.20;;;;;;;;;;6153693;23;20021;-88
2023/08/06 11:03:10;;;;;;;0.20;0.20;;;;;;;;;;6129518;23;20010;-88
2023/08/06 11:05:39;;;;;;;0.17;0.17;;;;;;;;;;6129328;23;20085;-88
2023/08/06 11:08:05;;;;;;;0.20;0.20;;;;;;;;;;6129159;23;20013;-89
2023/08/06 11:10:33;;;;;;;0.10;0.10;;;;;;;;;;6153730;23;20021;-88
2023/08/06 11:13:03;;;;;;;0.10;0.10;;;;;;;;;;6155530;23;20447;-89
2023/08/06 11:15:30;;;;;;;0.13;0.13;;;;;;;;;;6130619;23;20017;-92
2023/08/06 11:17:56;;;;;;;0.10;0.10;;;;;;;;;;6154400;23;20021;-92
2023/08/06 11:20:23;;;;;;;0.10;0.10;;;;;;;;;;6130507;23;20013;-92
2023/08/06 11:22:49;;;;;;;0.20;0.20;;;;;;;;;;6105634;23;20352;-93
2023/08/06 11:25:15;;;;;;;0.20;0.20;;;;;;;;;;6153692;23;20209;-92
2023/08/06 11:27:41;;;;;;;0.10;0.10;;;;;;;;;;6105030;23;20017;-92
2023/08/06 11:30:09;;;;;;;0.10;0.10;;;;;;;;;;6105522;23;20014;-93
2023/08/06 11:32:45;;;;;;;0.20;0.20;;;;;;;;;;6129650;23;20013;-93
2023/08/06 11:35:11;;;;;;;0.20;0.20;;;;;;;;;;6129838;23;20029;-92
2023/08/06 11:37:38;;;;;;;0.20;0.20;;;;;;;;;;6129683;23;20444;-93
2023/08/06 11:40:06;;;;;;;0.20;0.20;;;;;;;;;;6130388;23;20013;-93
2023/08/06 11:42:32;;;;;;;0.20;0.20;;;;;;;;;;6105011;23;20018;-93
2023/08/06 11:44:58;;;;;;;0.20;0.20;;;;;;;;;;6130052;23;20029;-92
2023/08/06 11:47:24;;;;;;;0.20;0.20;;;;;;;;;;6130190;23;20013;-92
2023/08/06 11:49:51;;;;;;;0.20;0.20;;;;;;;;;;6105546;23;20071;-94
2023/08/06 11:52:19;;;;;;;0.10;0.10;;;;;;;;;;6129801;23;20028;-91
2023/08/06 11:54:45;;;;;;;0.17;0.17;;;;;;;;;;6154120;23;20021;-93
2023/08/06 11:57:11;;;;;;;0.20;0.20;;;;;;;;;;6153893;23;20304;-94
2023/08/06 11:59:38;;;;;;;0.15;0.15;;;;;;;;;;6130430;23;20021;-93
2023/08/06 12:02:07;;;;;;;0.20;0.20;;;;;;;;;;6105593;23;20014;-94
2023/08/06 12:04:54;;;;;;;0.20;0.20;;;;;;;;;;6105146;23;20114;-90
2023/08/06 12:07:20;;;;;;;0.13;0.13;;;;;;;;;;6153830;23;20040;-91
2023/08/06 12:09:46;;;;;;;0.20;0.20;;;;;;;;;;6129440;23;20020;-91
2023/08/06 12:12:12;;;;;;;0.13;0.13;;;;;;;;;;6153226;23;20013;-92
2023/08/06 12:14:38;;;;;;;0.20;0.20;;;;;;;;;;6128930;23;20096;-91
2023/08/06 12:17:04;;;;;;;0.10;0.10;;;;;;;;;;6153946;23;20386;-93
2023/08/06 12:19:30;;;;;;;0.10;0.10;;;;;;;;;;6130180;23;20067;-92
2023/08/06 12:21:56;;;;;;;0.10;0.10;;;;;;;;;;6129633;23;20013;-93
2023/08/06 12:24:34;;;;;;;0.20;0.20;;;;;;;;;;6114440;23;20010;-95
2023/08/06 12:27:03;;;;;;;0.10;0.10;;;;;;;;;;6129592;23;20088;-96
2023/08/06 12:29:31;;;;;;;0.20;0.20;;;;;;;;;;6112922;23;20014;-94
2023/08/06 12:31:57;;;;;;;0.20;0.20;;;;;;;;;;6133422;23;20013;-91
2023/08/06 12:34:23;;;;;;;0.30;0.30;;;;;;;;;;6142038;23;20517;-96
2023/08/06 12:36:58;;;;;;;0.10;0.10;;;;;;;;;;6138150;23;20024;-96
2023/08/06 12:39:24;;;;;;;0.20;0.20;;;;;;;;;;6110207;23;20018;-94
2023/08/06 12:41:50;;;;;;;0.10;0.10;;;;;;;;;;6106065;23;20057;-96
2023/08/06 12:44:16;;;;;;;0.20;0.20;;;;;;;;;;6105920;23;20016;-93
2023/08/06 12:46:42;;;;;;;0.20;0.20;;;;;;;;;;6127174;23;20045;-93
2023/08/06 12:49:08;;;;;;;0.20;0.20;;;;;;;;;;6129471;23;20092;-93
2023/08/06 12:51:34;;;;;;;0.20;0.20;;;;;;;;;;6153986;23;20277;-93
2023/08/06 12:54:00;;;;;;;0.20;0.20;;;;;;;;;;6129305;23;20067;-93
2023/08/06 12:56:26;;;;;;;0.73;0.22;;;;;;;;;;6128885;23;20013;-93
2023/08/06 12:58:52;;;;;;;0.20;0.20;;;;;;;;;;6104634;23;20053;-93
2023/08/06 13:01:18;;;;;;;0.20;0.20;;;;;;;;;;6104232;23;20460;-93
2023/08/06 13:03:44;;;;;;;0.10;0.10;;;;;;;;;;6129333;23;20093;-93
2023/08/06 13:06:10;;;;;;;0.15;0.15;;;;;;;;;;6153241;23;20018;-94
2023/08/06 13:08:37;;;;;;;0.57;0.57;;;;;;;;;;6133340;23;20054;-94
2023/08/06 13:11:03;;;;;;;0.20;0.20;;;;;;;;;;6129325;23;20014;-94
2023/08/06 13:13:29;;;;;;;0.20;0.20;;;;;;;;;;6128911;23;20013;-93
2023/08/06 13:15:55;;;;;;;0.20;0.20;;;;;;;;;;6129008;23;20405;-94
2023/08/06 13:18:22;;;;;;;0.20;0.20;;;;;;;;;;6104376;23;20018;-95
2023/08/06 13:20:49;;;;;;;0.20;0.20;;;;;;;;;;6153794;23;20018;-95
2023/08/06 13:23:16;;;;;;;0.20;0.20;;;;;;;;;;6129484;23;20281;-95
2023/08/06 13:25:42;;;;;;;0.22;0.22;;;;;;;;;;6104963;23;20009;-95
2023/08/06 13:28:08;;;;;;;0.22;0.22;;;;;;;;;;6104548;23;20068;-94
2023/08/06 13:30:35;;;;;;;0.20;0.20;;;;;;;;;;6129238;23;20014;-95
2023/08/06 13:33:04;;;;;;;0.20;0.20;;;;;;;;;;6153338;23;20443;-92
2023/08/06 13:35:30;;;;;;;0.20;0.20;;;;;;;;;;6129533;23;20422;-94
2023/08/06 13:37:56;;;;;;;0.20;0.20;;;;;;;;;;6128764;23;20092;-92
2023/08/06 13:40:22;;;;;;;0.20;0.20;;;;;;;;;;6104248;23;20014;-92
2023/08/06 13:42:48;;;;;;;0.20;0.20;;;;;;;;;;6153464;23;20359;-94
2023/08/06 13:45:14;;;;;;;0.28;0.28;;;;;;;;;;6104583;23;20103;-92
2023/08/06 13:47:40;;;;;;;0.20;0.20;;;;;;;;;;6104711;23;20088;-93
2023/08/06 13:50:06;;;;;;;0.20;0.20;;;;;;;;;;6129075;23;20089;-93
2023/08/06 13:52:32;;;;;;;0.13;0.13;;;;;;;;;;6128649;23;20053;-93
2023/08/06 13:54:59;;;;;;;0.20;0.20;;;;;;;;;;6129422;23;20045;-93
2023/08/06 13:57:25;;;;;;;0.10;0.10;;;;;;;;;;6152518;23;20013;-93
2023/08/06 13:59:51;;;;;;;0.10;0.10;;;;;;;;;;6153105;23;20286;-92
2023/08/06 14:02:17;;;;;;;0.20;0.20;;;;;;;;;;6131685;23;20014;-93
2023/08/06 14:04:43;;;;;;;0.20;0.20;;;;;;;;;;6104101;23;20013;-94
2023/08/06 14:07:09;;;;;;;0.20;0.20;;;;;;;;;;6104545;23;20161;-93
2023/08/06 14:09:35;;;;;;;0.20;0.20;;;;;;;;;;6104194;23;20109;-92
2023/08/06 14:12:02;;;;;;;0.20;0.20;;;;;;;;;;6128170;23;20024;-92
2023/08/06 14:14:28;;;;;;;0.20;0.20;;;;;;;;;;6152704;23;20456;-94
2023/08/06 14:16:55;;;;;;;0.13;0.13;;;;;;;;;;6128428;23;20013;-96
2023/08/06 14:19:21;;;;;;;0.35;0.35;;;;;;;;;;6154728;23;20489;-94
2023/08/06 14:21:47;;;;;;;0.13;0.13;;;;;;;;;;6105986;23;20068;-93
2023/08/06 14:24:13;;;;;;;0.17;0.17;;;;;;;;;;6129936;23;20009;-93
2023/08/06 14:26:39;;;;;;;0.20;0.20;;;;;;;;;;6105388;23;20018;-91
2023/08/06 14:29:05;;;;;;;0.32;0.32;;;;;;;;;;6129967;23;20010;-93
2023/08/06 14:31:31;;;;;;;0.10;0.10;;;;;;;;;;6130199;23;20097;-91
2023/08/06 14:33:57;;;;;;;0.20;0.20;;;;;;;;;;6130396;23;20045;-90
2023/08/06 14:36:23;;;;;;;0.10;0.10;;;;;;;;;;6105286;23;20440;-91
2023/08/06 14:38:49;;;;;;;0.20;0.20;;;;;;;;;;6153950;23;20013;-90
2023/08/06 14:41:15;;;;;;;0.10;0.10;;;;;;;;;;6153959;23;20020;-90